Time;durP1;ratioP1;P1;durP2;ratioP2;P2;SDS_P1;SDS_P2;PMS_P1;PMS_P2;Temp;Humidity;BMP_temperature;BMP_pressure;BME280_temperature;BME280_humidity;BME280_pressure;Samples;Min_cycle;Max_cycle;Signal;HPM_P1;HPM_P2
2023/05/16 00:01:49;;;;;;;16.05;3.10;;;8.80;99.90;;;;;;5054163;28;20037;-76
2023/05/16 00:04:16;;;;;;;16.50;3.40;;;8.80;99.90;;;;;;5065797;28;20054;-75
2023/05/16 00:06:42;;;;;;;14.43;2.85;;;8.80;99.90;;;;;;5044446;28;20056;-76
2023/05/16 00:09:08;;;;;;;16.08;3.08;;;8.80;99.90;;;;;;5049905;28;20045;-76
2023/05/16 00:11:34;;;;;;;18.20;3.58;;;8.70;99.90;;;;;;5050781;28;20040;-75
2023/05/16 00:14:00;;;;;;;15.77;2.83;;;8.70;99.90;;;;;;5061285;28;20409;-75
2023/05/16 00:16:28;;;;;;;12.95;2.90;;;8.70;99.90;;;;;;5056019;28;20036;-75
2023/05/16 00:18:56;;;;;;;19.52;2.95;;;8.60;99.90;;;;;;5060217;28;20032;-75
2023/05/16 00:21:23;;;;;;;14.85;3.00;;;8.70;99.90;;;;;;5058181;28;20029;-75
2023/05/16 00:23:50;;;;;;;18.25;3.38;;;8.60;99.90;;;;;;5046320;28;20037;-75
2023/05/16 00:26:15;;;;;;;14.60;2.85;;;8.70;99.90;;;;;;5031511;28;20044;-75
2023/05/16 00:28:41;;;;;;;15.63;2.75;;;8.70;99.90;;;;;;5033217;28;20103;-75
2023/05/16 00:31:07;;;;;;;13.18;2.60;;;8.70;99.90;;;;;;5059438;28;20136;-75
2023/05/16 00:33:33;;;;;;;14.13;2.85;;;8.70;99.90;;;;;;5054250;28;20067;-75
2023/05/16 00:35:59;;;;;;;19.50;3.10;;;8.70;99.90;;;;;;5052045;28;20095;-75
2023/05/16 00:38:25;;;;;;;17.38;3.38;;;8.60;99.90;;;;;;5063657;28;20889;-75
2023/05/16 00:40:50;;;;;;;15.57;2.70;;;8.60;99.90;;;;;;5052293;28;20044;-75
2023/05/16 00:43:16;;;;;;;15.80;2.58;;;8.60;99.90;;;;;;5064376;28;20046;-75
2023/05/16 00:45:42;;;;;;;14.70;2.58;;;8.60;99.90;;;;;;5068105;28;20036;-75
2023/05/16 00:48:09;;;;;;;15.75;2.67;;;8.80;99.90;;;;;;5057909;28;20194;-75
2023/05/16 00:50:35;;;;;;;19.23;3.35;;;8.60;99.90;;;;;;5063628;28;20044;-75
2023/05/16 00:53:01;;;;;;;13.60;2.60;;;8.50;99.90;;;;;;5054688;28;20083;-75
2023/05/16 00:55:27;;;;;;;15.82;2.70;;;8.50;99.90;;;;;;5052924;28;20064;-75
2023/05/16 00:57:53;;;;;;;14.85;3.50;;;8.40;99.90;;;;;;5063023;28;20611;-75
2023/05/16 01:00:19;;;;;;;17.38;3.45;;;8.50;99.90;;;;;;5027043;28;20521;-75
2023/05/16 01:02:46;;;;;;;16.13;2.83;;;8.60;99.90;;;;;;5050257;28;20043;-75
2023/05/16 01:05:12;;;;;;;13.98;2.72;;;8.40;99.90;;;;;;5085255;28;20054;-75
2023/05/16 01:07:37;;;;;;;11.70;2.60;;;8.30;99.90;;;;;;5055554;28;20128;-75
2023/05/16 01:10:06;;;;;;;12.85;2.90;;;8.40;99.90;;;;;;5046909;28;20067;-75
2023/05/16 01:12:37;;;;;;;12.50;2.47;;;8.40;99.90;;;;;;5046850;28;20112;-75
2023/05/16 01:15:24;;;;;;;18.60;2.95;;;8.30;99.90;;;;;;5044612;28;20329;-75
2023/05/16 01:18:27;;;;;;;16.92;3.00;;;8.30;99.90;;;;;;5053154;28;20032;-76
2023/05/16 01:21:02;;;;;;;16.95;2.72;;;8.30;99.90;;;;;;5056873;28;20044;-75
2023/05/16 01:23:50;;;;;;;15.15;3.13;;;8.50;99.90;;;;;;5074917;28;20044;-75
2023/05/16 01:26:26;;;;;;;14.38;2.83;;;8.20;99.90;;;;;;5067560;28;20058;-75
2023/05/16 01:28:53;;;;;;;13.00;2.50;;;8.20;99.90;;;;;;5060561;28;20210;-75
2023/05/16 01:31:20;;;;;;;15.93;2.40;;;8.20;99.90;;;;;;5040842;28;20540;-75
2023/05/16 01:33:46;;;;;;;11.30;2.65;;;8.20;99.90;;;;;;5067128;28;20041;-75
2023/05/16 01:36:21;;;;;;;15.52;2.75;;;8.20;99.90;;;;;;5066413;28;20120;-75
2023/05/16 01:39:24;;;;;;;12.88;2.10;;;8.20;99.90;;;;;;5049786;28;20116;-75
2023/05/16 01:42:05;;;;;;;11.95;2.22;;;8.10;99.90;;;;;;5055643;28;20051;-75
2023/05/16 01:44:36;;;;;;;14.10;2.78;;;8.10;99.90;;;;;;5058402;28;20051;-75
2023/05/16 01:47:10;;;;;;;15.10;2.72;;;8.10;99.90;;;;;;5061631;28;20049;-75
2023/05/16 01:50:08;;;;;;;13.90;2.80;;;8.10;99.90;;;;;;5060641;28;20119;-75
2023/05/16 01:52:43;;;;;;;13.13;2.53;;;8.20;99.90;;;;;;5061798;28;20041;-75
2023/05/16 01:55:13;;;;;;;13.02;2.80;;;8.20;99.90;;;;;;5060010;28;20037;-75
2023/05/16 01:57:41;;;;;;;12.25;2.38;;;8.20;99.90;;;;;;5061206;28;20087;-75
2023/05/16 02:00:07;;;;;;;15.98;2.85;;;8.20;99.90;;;;;;5055103;28;20533;-75
2023/05/16 02:02:33;;;;;;;15.60;2.83;;;8.20;99.90;;;;;;5047699;28;20044;-75
2023/05/16 02:04:58;;;;;;;14.30;2.47;;;8.20;99.90;;;;;;5058682;28;20405;-75
2023/05/16 02:07:24;;;;;;;14.43;2.45;;;8.20;99.90;;;;;;5067839;28;20350;-75
2023/05/16 02:09:50;;;;;;;12.27;2.53;;;8.20;99.90;;;;;;5061827;28;20041;-75
2023/05/16 02:12:16;;;;;;;18.25;3.30;;;8.20;99.90;;;;;;5057648;28;20036;-75
2023/05/16 02:14:42;;;;;;;19.70;3.30;;;8.20;99.90;;;;;;5057576;28;20066;-75
2023/05/16 02:17:08;;;;;;;11.90;2.40;;;8.10;99.90;;;;;;5055669;28;20490;-75
2023/05/16 02:19:34;;;;;;;18.38;2.70;;;8.10;99.90;;;;;;5035293;28;20032;-75
2023/05/16 02:21:59;;;;;;;11.15;2.60;;;8.20;99.90;;;;;;5055718;28;20134;-75
2023/05/16 02:24:25;;;;;;;15.73;2.80;;;8.20;99.90;;;;;;5047201;28;20040;-75
2023/05/16 02:26:51;;;;;;;15.02;2.95;;;8.20;99.90;;;;;;5065211;28;20537;-75
2023/05/16 02:29:17;;;;;;;17.88;3.70;;;8.20;99.90;;;;;;5048956;28;20135;-75
2023/05/16 02:31:43;;;;;;;12.73;2.58;;;8.10;99.90;;;;;;5054652;28;20090;-75
2023/05/16 02:34:09;;;;;;;13.73;2.70;;;8.10;99.90;;;;;;5055291;28;20040;-75
2023/05/16 02:36:35;;;;;;;16.67;2.83;;;8.10;99.90;;;;;;5047579;28;20037;-75
2023/05/16 02:39:03;;;;;;;14.38;2.75;;;8.10;99.90;;;;;;5059552;28;20490;-75
2023/05/16 02:41:29;;;;;;;11.80;2.53;;;8.00;99.90;;;;;;5072232;28;20571;-75
2023/05/16 02:43:54;;;;;;;16.30;2.88;;;8.00;99.90;;;;;;5047448;28;20106;-75
2023/05/16 02:46:26;;;;;;;15.05;2.97;;;8.10;99.90;;;;;;5061011;28;20056;-75
2023/05/16 02:48:53;;;;;;;14.23;3.08;;;8.20;99.90;;;;;;5081645;28;20441;-75
2023/05/16 02:51:24;;;;;;;14.48;2.63;;;8.00;99.90;;;;;;5053730;28;20520;-75
2023/05/16 02:53:51;;;;;;;15.88;2.70;;;8.00;99.90;;;;;;5050719;28;20041;-75
2023/05/16 02:56:17;;;;;;;16.92;2.95;;;8.20;99.90;;;;;;5068710;28;20445;-75
2023/05/16 02:58:46;;;;;;;14.23;2.88;;;7.90;99.90;;;;;;5049761;28;20056;-75
2023/05/16 03:01:12;;;;;;;12.27;2.25;;;7.10;99.90;;;;;;5051847;28;20037;-75
2023/05/16 03:03:38;;;;;;;16.38;2.75;;;7.90;99.90;;;;;;5064130;28;20062;-75
2023/05/16 03:06:04;;;;;;;15.70;3.28;;;7.90;99.90;;;;;;5065429;28;20505;-75
2023/05/16 03:08:30;;;;;;;16.98;3.05;;;7.90;99.90;;;;;;5060463;28;20041;-75
2023/05/16 03:10:56;;;;;;;15.18;2.65;;;7.90;99.90;;;;;;5067067;28;20473;-75
2023/05/16 03:13:22;;;;;;;12.85;2.45;;;7.80;99.90;;;;;;5059895;28;20102;-75
2023/05/16 03:15:48;;;;;;;16.02;2.78;;;7.80;99.90;;;;;;5035037;28;20036;-75
2023/05/16 03:18:14;;;;;;;15.13;2.80;;;7.90;99.90;;;;;;5062342;28;20040;-75
2023/05/16 03:20:40;;;;;;;16.60;3.10;;;7.90;99.90;;;;;;5052661;28;20043;-75
2023/05/16 03:23:07;;;;;;;14.48;2.50;;;7.80;99.90;;;;;;5058827;28;20036;-75
2023/05/16 03:25:36;;;;;;;14.88;3.42;;;7.80;99.90;;;;;;5061880;28;20115;-75
2023/05/16 03:28:09;;;;;;;13.90;2.72;;;7.80;99.90;;;;;;5061017;28;20087;-75
2023/05/16 03:30:35;;;;;;;13.02;2.70;;;7.80;99.90;;;;;;5058077;28;20041;-75
2023/05/16 03:33:00;;;;;;;14.00;2.70;;;7.80;99.90;;;;;;5058811;28;20040;-75
2023/05/16 03:35:31;;;;;;;16.80;3.58;;;7.80;99.90;;;;;;5050396;28;20132;-75
2023/05/16 03:37:56;;;;;;;11.90;2.50;;;7.80;99.90;;;;;;5044868;28;20486;-75
2023/05/16 03:40:22;;;;;;;13.60;2.58;;;7.90;99.90;;;;;;5064506;28;20086;-75
2023/05/16 03:42:48;;;;;;;15.63;3.15;;;7.90;99.90;;;;;;5069873;28;20089;-75
2023/05/16 03:45:14;;;;;;;15.30;2.67;;;7.90;99.90;;;;;;5046830;28;20047;-75
2023/05/16 03:47:40;;;;;;;16.17;2.90;;;7.90;99.90;;;;;;5061575;28;20043;-75
2023/05/16 03:50:06;;;;;;;17.58;3.08;;;7.90;99.90;;;;;;5051921;28;20032;-75
2023/05/16 03:52:33;;;;;;;13.30;3.17;;;7.90;99.90;;;;;;5053033;28;20048;-75
2023/05/16 03:54:58;;;;;;;11.93;2.50;;;7.90;99.90;;;;;;5055895;28;20097;-75
2023/05/16 03:57:24;;;;;;;15.15;2.80;;;7.90;99.90;;;;;;5046348;28;20053;-75
2023/05/16 03:59:50;;;;;;;16.23;3.17;;;7.90;99.90;;;;;;5061470;28;20151;-75
2023/05/16 04:02:16;;;;;;;13.40;2.45;;;7.90;99.90;;;;;;5059967;28;20163;-75
2023/05/16 04:04:41;;;;;;;14.85;3.50;;;8.00;99.90;;;;;;5046789;28;21246;-75
2023/05/16 04:07:07;;;;;;;15.05;2.80;;;8.00;99.90;;;;;;5062835;28;21022;-75
2023/05/16 04:09:33;;;;;;;13.20;3.03;;;8.00;99.90;;;;;;5047057;28;20035;-75
2023/05/16 04:12:00;;;;;;;15.77;2.58;;;8.00;99.90;;;;;;5040995;28;20051;-75
2023/05/16 04:14:26;;;;;;;27.27;3.75;;;8.10;99.90;;;;;;5053847;28;20108;-75
2023/05/16 04:16:52;;;;;;;12.18;2.20;;;8.30;99.90;;;;;;5057821;28;20048;-75
2023/05/16 04:19:17;;;;;;;13.30;2.58;;;8.10;99.90;;;;;;5045867;28;20068;-75
2023/05/16 04:21:43;;;;;;;13.38;2.38;;;8.10;99.90;;;;;;5050344;28;20094;-75
2023/05/16 04:24:09;;;;;;;13.82;2.47;;;8.20;99.90;;;;;;5055733;28;20049;-75
2023/05/16 04:26:36;;;;;;;11.82;2.95;;;8.10;99.90;;;;;;5054665;28;20047;-75
2023/05/16 04:29:02;;;;;;;12.32;2.60;;;8.20;99.90;;;;;;5040688;28;20076;-75
2023/05/16 04:31:28;;;;;;;14.00;2.85;;;8.20;99.90;;;;;;5034038;28;20506;-75
2023/05/16 04:33:54;;;;;;;12.30;2.10;;;8.30;99.90;;;;;;5067578;28;20045;-76
2023/05/16 04:36:21;;;;;;;14.05;2.90;;;8.20;99.90;;;;;;5067208;28;20545;-75
2023/05/16 04:38:46;;;;;;;13.63;2.47;;;8.30;99.90;;;;;;5067648;28;20418;-75
2023/05/16 04:41:12;;;;;;;15.10;2.88;;;8.30;99.90;;;;;;5064196;28;20035;-75
2023/05/16 04:43:39;;;;;;;14.63;2.80;;;8.30;99.90;;;;;;5060812;28;20127;-75
2023/05/16 04:46:06;;;;;;;12.63;2.30;;;8.40;99.90;;;;;;5073914;28;20044;-75
2023/05/16 04:48:32;;;;;;;11.57;2.40;;;8.40;99.90;;;;;;5066555;28;20405;-75
2023/05/16 04:50:58;;;;;;;11.15;2.30;;;8.50;99.90;;;;;;5067238;28;20077;-75
2023/05/16 04:53:24;;;;;;;11.43;2.78;;;8.60;99.90;;;;;;5071661;28;20036;-75
2023/05/16 04:55:50;;;;;;;15.13;2.38;;;8.60;99.90;;;;;;5060795;28;20037;-75
2023/05/16 04:58:16;;;;;;;19.58;2.95;;;8.60;99.90;;;;;;5069966;28;20054;-75
2023/05/16 05:00:41;;;;;;;16.15;2.58;;;8.60;99.90;;;;;;5056850;28;20044;-75
2023/05/16 05:03:07;;;;;;;13.82;2.63;;;8.60;99.90;;;;;;5073283;28;20705;-75
2023/05/16 05:05:33;;;;;;;15.55;2.40;;;8.90;99.90;;;;;;5036748;28;20122;-75
2023/05/16 05:08:00;;;;;;;11.07;2.47;;;8.70;99.90;;;;;;5051050;28;20097;-75
2023/05/16 05:10:30;;;;;;;20.55;2.60;;;8.70;99.90;;;;;;5068286;28;20044;-75
2023/05/16 05:12:56;;;;;;;18.83;3.15;;;8.70;99.90;;;;;;5053495;28;20033;-75
2023/05/16 05:15:21;;;;;;;12.65;2.60;;;8.80;99.90;;;;;;5071945;28;20127;-75
2023/05/16 05:17:47;;;;;;;14.95;2.78;;;8.80;99.90;;;;;;5047487;28;20124;-75
2023/05/16 05:20:13;;;;;;;12.63;2.53;;;8.90;99.90;;;;;;5072389;28;20032;-75
2023/05/16 05:22:38;;;;;;;13.98;2.30;;;9.00;99.90;;;;;;5036338;28;20498;-75
2023/05/16 05:25:05;;;;;;;14.05;2.83;;;9.10;99.90;;;;;;5050849;28;20120;-75
2023/05/16 05:27:31;;;;;;;13.73;2.67;;;10.20;99.90;;;;;;5048510;28;20034;-75
2023/05/16 05:29:56;;;;;;;13.55;2.45;;;9.10;99.90;;;;;;5069983;28;20383;-75
2023/05/16 05:32:22;;;;;;;14.25;2.20;;;9.10;99.90;;;;;;5072790;28;20442;-75
2023/05/16 05:34:48;;;;;;;15.05;2.63;;;9.00;99.90;;;;;;5072354;28;20046;-75
2023/05/16 05:37:14;;;;;;;13.07;2.63;;;9.00;99.90;;;;;;5056038;28;20040;-75
2023/05/16 05:39:40;;;;;;;13.13;2.35;;;9.00;99.90;;;;;;5070412;28;20047;-75
2023/05/16 05:42:06;;;;;;;12.63;2.45;;;9.20;99.90;;;;;;5035886;28;20048;-75
2023/05/16 05:44:32;;;;;;;13.10;2.55;;;9.30;99.90;;;;;;5053131;28;20052;-76
2023/05/16 05:46:58;;;;;;;14.57;2.45;;;9.40;99.90;;;;;;5072553;28;20086;-75
2023/05/16 05:49:25;;;;;;;12.73;2.47;;;9.60;99.90;;;;;;5060516;28;20494;-75
2023/05/16 05:51:51;;;;;;;13.80;2.47;;;9.70;99.90;;;;;;5039582;28;20449;-75
2023/05/16 05:54:18;;;;;;;11.45;2.30;;;9.80;99.90;;;;;;5072411;28;20064;-76
2023/05/16 05:56:44;;;;;;;12.80;2.25;;;9.90;99.90;;;;;;5072263;28;20071;-75
2023/05/16 05:59:10;;;;;;;15.48;2.80;;;10.00;99.90;;;;;;5066761;28;20051;-75
2023/05/16 06:01:36;;;;;;;12.77;2.67;;;10.00;99.90;;;;;;5070952;28;20040;-75
2023/05/16 06:04:02;;;;;;;11.43;2.22;;;10.20;99.90;;;;;;5064631;28;20498;-75
2023/05/16 06:06:28;;;;;;;15.88;2.72;;;10.30;99.90;;;;;;5064064;28;20036;-75
2023/05/16 06:08:54;;;;;;;9.90;2.03;;;10.40;99.90;;;;;;5058598;28;20037;-75
2023/05/16 06:11:20;;;;;;;14.52;2.67;;;10.40;99.90;;;;;;5068412;28;20166;-75
2023/05/16 06:13:46;;;;;;;12.13;2.30;;;10.50;99.90;;;;;;5071866;28;20040;-75
2023/05/16 06:16:12;;;;;;;12.90;2.20;;;10.50;99.90;;;;;;5071739;28;20051;-76
2023/05/16 06:18:38;;;;;;;10.38;2.05;;;10.50;99.90;;;;;;5044048;28;20044;-75
2023/05/16 06:21:05;;;;;;;14.90;2.67;;;10.50;99.90;;;;;;5063626;28;20417;-76
2023/05/16 06:23:32;;;;;;;10.93;2.20;;;10.60;99.90;;;;;;5053420;28;20184;-75
2023/05/16 06:25:57;;;;;;;13.00;2.22;;;10.60;99.90;;;;;;5071528;28;20554;-76
2023/05/16 06:28:23;;;;;;;8.85;2.22;;;10.60;99.90;;;;;;5055090;28;20047;-75
2023/05/16 06:30:50;;;;;;;11.93;2.00;;;10.80;99.90;;;;;;5051604;28;20254;-76
2023/05/16 06:33:17;;;;;;;11.50;1.92;;;10.90;99.90;;;;;;5041759;28;20433;-76
2023/05/16 06:35:43;;;;;;;10.95;2.03;;;11.00;99.90;;;;;;5050380;28;20063;-76
2023/05/16 06:38:09;;;;;;;8.70;1.80;;;11.10;99.90;;;;;;5066451;28;20119;-76
2023/05/16 06:40:36;;;;;;;10.00;2.03;;;11.20;99.90;;;;;;5041299;28;20037;-76
2023/05/16 06:43:02;;;;;;;9.75;1.92;;;11.10;99.90;;;;;;5041520;28;20069;-75
2023/05/16 06:45:28;;;;;;;11.98;2.72;;;10.90;99.90;;;;;;5058779;28;20122;-76
2023/05/16 06:47:55;;;;;;;11.40;2.45;;;10.80;99.90;;;;;;5056849;28;20052;-76
2023/05/16 06:50:21;;;;;;;9.50;2.45;;;10.80;99.90;;;;;;5070332;28;20511;-76
2023/05/16 06:52:47;;;;;;;12.52;2.35;;;10.80;99.90;;;;;;5071349;28;20069;-76
2023/05/16 06:55:13;;;;;;;13.70;2.80;;;10.80;99.90;;;;;;5060960;28;20068;-75
2023/05/16 06:57:39;;;;;;;13.13;2.70;;;10.90;99.90;;;;;;5056632;28;20052;-76
2023/05/16 07:00:06;;;;;;;16.88;2.35;;;11.00;99.90;;;;;;5048768;28;20107;-75
2023/05/16 07:02:31;;;;;;;11.07;1.85;;;11.20;99.90;;;;;;5068204;28;20051;-75
2023/05/16 07:04:57;;;;;;;9.45;2.17;;;11.30;99.90;;;;;;5065658;28;20037;-75
2023/05/16 07:07:23;;;;;;;6.03;1.77;;;11.00;99.90;;;;;;5062935;28;20051;-75
2023/05/16 07:09:48;;;;;;;8.10;1.70;;;10.80;99.90;;;;;;5050946;28;20048;-75
2023/05/16 07:12:14;;;;;;;10.05;2.70;;;10.90;99.90;;;;;;5059996;28;20032;-75
2023/05/16 07:14:40;;;;;;;9.60;1.90;;;10.90;99.90;;;;;;5049517;28;20036;-75
2023/05/16 07:17:06;;;;;;;11.10;2.00;;;11.00;99.90;;;;;;5050305;28;20481;-75
2023/05/16 07:19:32;;;;;;;8.40;1.83;;;11.10;99.90;;;;;;5054430;28;20040;-75
2023/05/16 07:21:57;;;;;;;13.90;2.63;;;11.30;99.90;;;;;;5054674;28;20040;-75
2023/05/16 07:24:23;;;;;;;13.73;2.65;;;11.40;99.90;;;;;;5067678;28;20095;-75
2023/05/16 07:26:49;;;;;;;9.07;2.00;;;11.60;99.90;;;;;;5061125;28;20048;-75
2023/05/16 07:29:15;;;;;;;12.50;2.60;;;11.70;99.90;;;;;;5064695;28;20550;-75
2023/05/16 07:31:40;;;;;;;12.25;2.42;;;11.80;99.90;;;;;;5061127;28;20052;-75
2023/05/16 07:34:06;;;;;;;10.15;2.30;;;11.70;99.90;;;;;;5046086;28;20037;-75
2023/05/16 07:36:33;;;;;;;9.75;2.40;;;11.60;99.90;;;;;;5048865;28;20483;-75
2023/05/16 07:38:59;;;;;;;9.93;2.10;;;11.60;99.90;;;;;;5057176;28;20036;-75
2023/05/16 07:41:26;;;;;;;11.73;2.40;;;11.40;99.90;;;;;;5041160;28;20067;-75
2023/05/16 07:43:51;;;;;;;12.32;2.63;;;11.20;99.90;;;;;;5056453;28;20118;-75
2023/05/16 07:46:17;;;;;;;11.48;2.45;;;11.10;99.90;;;;;;5054682;28;20127;-75
2023/05/16 07:48:43;;;;;;;10.60;2.00;;;11.30;99.90;;;;;;5073273;28;20051;-75
2023/05/16 07:51:08;;;;;;;13.57;2.50;;;11.20;99.90;;;;;;5044194;28;20447;-75
2023/05/16 07:53:34;;;;;;;12.88;2.60;;;11.20;99.90;;;;;;5053165;28;20555;-75
2023/05/16 07:56:00;;;;;;;13.77;2.53;;;11.40;99.90;;;;;;5045060;28;20032;-75
2023/05/16 07:58:26;;;;;;;10.60;1.98;;;11.50;99.90;;;;;;5068178;28;20048;-75
2023/05/16 08:00:51;;;;;;;11.43;2.50;;;11.70;99.90;;;;;;5039600;28;20469;-75
2023/05/16 08:03:17;;;;;;;10.25;2.55;;;11.60;99.90;;;;;;5059680;28;20097;-75
2023/05/16 08:05:43;;;;;;;13.25;2.70;;;11.50;99.90;;;;;;5053576;28;20049;-75
2023/05/16 08:08:09;;;;;;;11.77;2.40;;;11.60;99.90;;;;;;5071175;28;20493;-75
2023/05/16 08:10:35;;;;;;;10.35;2.20;;;11.90;99.90;;;;;;5054139;28;20041;-75
2023/05/16 08:13:01;;;;;;;13.10;2.25;;;12.00;99.90;;;;;;5043880;28;20116;-75
2023/05/16 08:15:27;;;;;;;11.57;2.42;;;11.70;99.90;;;;;;5031252;28;20478;-75
2023/05/16 08:18:00;;;;;;;17.00;3.10;;;11.60;99.90;;;;;;5054108;28;20498;-75
2023/05/16 08:20:25;;;;;;;10.88;2.33;;;11.40;99.90;;;;;;5071036;28;20094;-75
2023/05/16 08:22:51;;;;;;;15.10;2.35;;;11.50;99.90;;;;;;5066954;28;20041;-75
2023/05/16 08:25:17;;;;;;;11.18;2.50;;;11.70;99.90;;;;;;5063248;28;20033;-75
2023/05/16 08:27:45;;;;;;;14.60;2.20;;;11.90;99.90;;;;;;5031702;28;20037;-75
2023/05/16 08:30:11;;;;;;;14.52;3.08;;;12.10;99.90;;;;;;5053737;28;20514;-75
2023/05/16 08:32:37;;;;;;;11.60;2.47;;;11.90;99.90;;;;;;5032217;28;20041;-75
2023/05/16 08:35:03;;;;;;;10.52;1.98;;;11.70;99.90;;;;;;5061093;28;20047;-75
2023/05/16 08:37:29;;;;;;;8.10;1.77;;;11.50;99.90;;;;;;5033071;28;20035;-75
2023/05/16 08:39:55;;;;;;;7.25;1.67;;;11.50;99.90;;;;;;5051006;28;20044;-75
2023/05/16 08:42:21;;;;;;;12.43;2.35;;;11.70;99.90;;;;;;5048408;28;20112;-75
2023/05/16 08:44:47;;;;;;;10.25;2.30;;;11.90;99.90;;;;;;5051236;28;20065;-75
2023/05/16 08:47:20;;;;;;;10.90;2.00;;;12.10;99.90;;;;;;5066998;28;20097;-75
2023/05/16 08:49:51;;;;;;;14.23;3.03;;;12.40;99.90;;;;;;5060053;28;20051;-75
2023/05/16 08:52:22;;;;;;;9.35;2.08;;;12.50;99.90;;;;;;5061017;28;20045;-75
2023/05/16 08:54:50;;;;;;;13.32;2.08;;;12.60;99.90;;;;;;5058796;28;20122;-75
2023/05/16 08:57:16;;;;;;;12.00;2.38;;;12.50;99.90;;;;;;5086849;28;20056;-76
2023/05/16 08:59:43;;;;;;;12.80;2.25;;;12.30;99.90;;;;;;5026709;28;20040;-75
2023/05/16 09:02:09;;;;;;;10.25;2.42;;;12.20;99.90;;;;;;5060055;28;20087;-75
2023/05/16 09:04:36;;;;;;;11.00;2.42;;;12.00;99.90;;;;;;5056954;28;20081;-75
2023/05/16 09:07:02;;;;;;;13.70;2.47;;;11.80;99.90;;;;;;5037688;28;20032;-75
2023/05/16 09:09:29;;;;;;;13.10;2.72;;;11.50;99.90;;;;;;5044237;28;20053;-75
2023/05/16 09:11:55;;;;;;;12.20;2.25;;;11.60;99.90;;;;;;5050269;28;20033;-75
2023/05/16 09:14:21;;;;;;;10.43;1.83;;;11.80;99.90;;;;;;5056406;28;20071;-75
2023/05/16 09:17:03;;;;;;;10.88;2.20;;;12.10;99.90;;;;;;5053156;28;20511;-75
2023/05/16 09:19:40;;;;;;;11.50;2.10;;;12.40;99.90;;;;;;5051983;28;20040;-75
2023/05/16 09:22:12;;;;;;;12.35;2.20;;;12.20;99.90;;;;;;5066029;28;20040;-75
2023/05/16 09:24:42;;;;;;;9.18;1.95;;;11.80;99.90;;;;;;5069486;28;20115;-75
2023/05/16 09:27:13;;;;;;;12.68;2.38;;;11.40;99.90;;;;;;5063465;28;20064;-75
2023/05/16 09:29:43;;;;;;;14.27;3.03;;;11.20;99.90;;;;;;5069508;28;20052;-75
2023/05/16 09:32:14;;;;;;;13.88;2.50;;;11.40;99.90;;;;;;5053393;28;20040;-75
2023/05/16 09:34:48;;;;;;;11.43;2.08;;;11.70;99.90;;;;;;5050241;28;20044;-75
2023/05/16 09:37:14;;;;;;;12.52;2.22;;;11.90;99.90;;;;;;5056931;28;20395;-75
2023/05/16 09:39:51;;;;;;;11.80;2.20;;;11.80;99.90;;;;;;5060808;28;20425;-75
2023/05/16 09:42:18;;;;;;;9.32;1.73;;;11.70;99.90;;;;;;5069496;28;20045;-75
2023/05/16 09:44:53;;;;;;;7.85;1.63;;;11.50;99.90;;;;;;5036100;28;20099;-75
2023/05/16 09:47:20;;;;;;;9.73;2.00;;;11.30;99.90;;;;;;5057020;28;20064;-75
2023/05/16 09:49:55;;;;;;;11.23;2.00;;;11.20;99.90;;;;;;5049089;28;20063;-76
2023/05/16 09:52:21;;;;;;;9.88;1.92;;;11.30;99.90;;;;;;5069150;28;20098;-75
2023/05/16 09:54:48;;;;;;;10.48;2.15;;;11.50;99.90;;;;;;5068966;28;20043;-75
2023/05/16 09:57:22;;;;;;;9.68;1.80;;;11.80;99.90;;;;;;5068950;28;20059;-75
2023/05/16 09:59:48;;;;;;;10.07;2.45;;;12.20;99.90;;;;;;5049562;28;20555;-76
2023/05/16 10:02:15;;;;;;;12.43;2.72;;;12.20;99.90;;;;;;5066036;28;20390;-75
2023/05/16 10:04:41;;;;;;;15.77;2.58;;;12.10;99.90;;;;;;5052430;28;20101;-75
2023/05/16 10:07:08;;;;;;;9.95;2.22;;;12.00;99.90;;;;;;5051217;28;20044;-75
2023/05/16 10:09:35;;;;;;;13.10;2.72;;;12.10;99.90;;;;;;5052356;28;20052;-75
2023/05/16 10:12:05;;;;;;;15.38;2.45;;;11.90;99.90;;;;;;5069202;28;20043;-75
2023/05/16 10:14:39;;;;;;;10.27;1.98;;;11.90;99.90;;;;;;5068669;28;20051;-75
2023/05/16 10:17:14;;;;;;;12.80;2.65;;;12.00;99.90;;;;;;5053868;28;20573;-75
2023/05/16 10:19:41;;;;;;;9.77;2.13;;;12.30;99.90;;;;;;5066126;28;20402;-75
2023/05/16 10:22:09;;;;;;;11.32;2.50;;;12.40;99.90;;;;;;5056293;28;20068;-76
2023/05/16 10:25:11;;;;;;;14.73;2.30;;;12.50;99.90;;;;;;5063810;28;20048;-76
2023/05/16 10:27:39;;;;;;;8.27;1.60;;;12.30;99.90;;;;;;5064163;28;20067;-75
2023/05/16 10:30:05;;;;;;;6.00;1.40;;;10.90;99.90;;;;;;5047061;28;20045;-76
2023/05/16 10:32:33;;;;;;;5.88;1.40;;;10.90;99.90;;;;;;5035404;28;20040;-76
2023/05/16 10:35:02;;;;;;;6.45;1.63;;;10.60;99.90;;;;;;5049633;28;20236;-76
2023/05/16 10:37:32;;;;;;;7.93;1.77;;;10.40;99.90;;;;;;5061945;28;20048;-75
2023/05/16 10:40:04;;;;;;;6.47;1.50;;;10.40;99.90;;;;;;5044043;28;20029;-76
2023/05/16 10:42:32;;;;;;;7.95;1.80;;;10.60;99.90;;;;;;5056066;28;20045;-75
2023/05/16 10:45:18;;;;;;;9.23;1.90;;;11.00;99.90;;;;;;5042569;28;20214;-75
2023/05/16 10:48:02;;;;;;;10.02;1.90;;;11.50;99.90;;;;;;5050790;28;20071;-75
2023/05/16 10:50:34;;;;;;;9.93;1.95;;;11.80;99.90;;;;;;5055367;28;20406;-75
2023/05/16 10:53:27;;;;;;;11.35;2.17;;;12.10;99.90;;;;;;5068466;28;20040;-75
2023/05/16 10:55:59;;;;;;;11.57;2.15;;;12.10;99.90;;;;;;5067959;28;20442;-75
2023/05/16 10:58:38;;;;;;;13.63;2.67;;;11.90;99.90;;;;;;5062557;28;20052;-75
2023/05/16 11:01:26;;;;;;;13.02;2.05;;;12.00;99.90;;;;;;5059498;28;20405;-75
2023/05/16 11:04:00;;;;;;;9.82;2.17;;;12.20;99.90;;;;;;5051342;28;20045;-75
2023/05/16 11:06:41;;;;;;;11.85;1.95;;;12.50;99.90;;;;;;5067801;28;20037;-75
2023/05/16 11:09:16;;;;;;;12.38;2.20;;;12.90;99.90;;;;;;5061465;28;20047;-75
2023/05/16 11:11:42;;;;;;;11.93;2.60;;;13.10;99.90;;;;;;5048349;28;20048;-75
2023/05/16 11:14:08;;;;;;;10.82;1.90;;;13.10;99.90;;;;;;5051033;28;20097;-76
2023/05/16 11:16:35;;;;;;;11.25;2.15;;;13.00;99.90;;;;;;5068247;28;20115;-75
2023/05/16 11:19:08;;;;;;;11.85;2.30;;;13.00;99.90;;;;;;5033717;28;20083;-75
2023/05/16 11:22:14;;;;;;;10.30;2.22;;;13.10;99.90;;;;;;5051491;28;20065;-75
2023/05/16 11:24:48;;;;;;;11.38;2.10;;;13.00;99.90;;;;;;5067546;28;20124;-75
2023/05/16 11:27:23;;;;;;;10.85;2.30;;;13.20;99.90;;;;;;5067938;28;20072;-75
2023/05/16 11:29:50;;;;;;;10.30;2.40;;;13.40;99.90;;;;;;5061047;28;20115;-75
2023/05/16 11:32:19;;;;;;;9.85;2.25;;;13.70;99.90;;;;;;5049957;28;20521;-75
2023/05/16 11:34:46;;;;;;;10.23;2.40;;;13.70;99.90;;;;;;5063060;28;20090;-75
2023/05/16 11:37:14;;;;;;;11.32;2.30;;;13.40;99.90;;;;;;5051330;28;20044;-75
2023/05/16 11:39:39;;;;;;;11.73;2.03;;;13.30;99.90;;;;;;5051183;28;20598;-75
2023/05/16 11:42:05;;;;;;;13.15;2.88;;;13.30;99.90;;;;;;5041668;28;20127;-75
2023/05/16 11:44:31;;;;;;;8.43;1.95;;;13.40;99.90;;;;;;5051099;28;20123;-75
2023/05/16 11:47:00;;;;;;;11.10;2.40;;;13.40;99.90;;;;;;5067608;28;20390;-75
2023/05/16 11:49:27;;;;;;;10.32;2.30;;;13.60;99.90;;;;;;5067484;28;20123;-75
2023/05/16 11:51:56;;;;;;;11.52;2.47;;;13.80;99.90;;;;;;5062890;28;20036;-75
2023/05/16 11:54:23;;;;;;;11.57;2.72;;;13.80;99.90;;;;;;5067503;28;20049;-75
2023/05/16 11:56:50;;;;;;;10.00;2.30;;;13.70;99.90;;;;;;5069516;28;20497;-75
2023/05/16 11:59:19;;;;;;;14.23;2.80;;;13.70;99.90;;;;;;5070517;28;20056;-75
2023/05/16 12:01:47;;;;;;;10.98;2.30;;;13.80;99.90;;;;;;5049826;28;20440;-76
2023/05/16 12:04:15;;;;;;;11.93;2.70;;;13.80;99.90;;;;;;5045893;28;20120;-75
2023/05/16 12:06:46;;;;;;;12.68;2.58;;;13.70;99.90;;;;;;5071039;28;20048;-75
2023/05/16 12:09:13;;;;;;;11.23;2.38;;;13.40;99.90;;;;;;5050685;28;20047;-76
2023/05/16 12:11:44;;;;;;;12.82;2.58;;;13.30;99.90;;;;;;5068439;28;20048;-75
2023/05/16 12:14:11;;;;;;;14.95;2.30;;;13.30;99.90;;;;;;5078373;28;20112;-75
2023/05/16 12:16:40;;;;;;;12.45;2.50;;;13.30;99.90;;;;;;5065734;28;20032;-75
2023/05/16 12:19:07;;;;;;;11.05;2.78;;;13.10;99.90;;;;;;5086217;28;20438;-75
2023/05/16 12:21:33;;;;;;;11.70;2.83;;;12.90;99.90;;;;;;5071159;28;20044;-75
2023/05/16 12:23:59;;;;;;;12.65;2.58;;;12.90;99.90;;;;;;5074329;28;20097;-75
2023/05/16 12:26:32;;;;;;;12.32;2.38;;;12.90;99.90;;;;;;5057405;28;20143;-75
2023/05/16 12:29:04;;;;;;;13.65;2.60;;;13.20;99.90;;;;;;5056524;28;20338;-75
2023/05/16 12:31:30;;;;;;;12.55;2.92;;;13.10;99.90;;;;;;5056124;28;20115;-75
2023/05/16 12:33:57;;;;;;;11.82;3.17;;;13.10;99.90;;;;;;5073879;28;20451;-75
2023/05/16 12:36:25;;;;;;;13.15;2.85;;;13.00;99.90;;;;;;5073642;28;20096;-75
2023/05/16 12:38:51;;;;;;;11.30;2.95;;;13.10;99.90;;;;;;5074265;28;20497;-75
2023/05/16 12:41:21;;;;;;;12.52;3.45;;;13.10;99.90;;;;;;5068295;28;20059;-76
2023/05/16 12:43:48;;;;;;;13.82;3.30;;;13.30;99.90;;;;;;5074175;28;20067;-75
2023/05/16 12:46:14;;;;;;;12.05;3.00;;;13.30;99.90;;;;;;5073377;28;20048;-75
2023/05/16 12:48:43;;;;;;;13.38;3.22;;;13.30;99.90;;;;;;5054398;28;20059;-75